Aeroporto :
LOGIN :

Iscrizione | Disclaimer

   EN    FR    IT 

 










Sommario :    VFR   VFR Marginale   IFR   IFR Intensivo   IFR Molto Intensivo
Visibilità : 
Base nubi : 
>= 8 km
>= 3000ft
5 / 8 km
1000 / 3000 ft
1500m / 5 km
500 / 1000 ft
800 / 1500m
200 / 500 ft
< 800m
< 200 ft
Simboli :   Temporali  Nebbia  Neve Forte  Precipitazioni Forti  Vento > 20 kt
SIGMETs :   Varie  Temporali  Ghiacco  Turbolenza  Onda orograficha  Ceneri Vulcaniche






- Altitudine del aeroporto : 3 ft
- Codice IATA : DHR


EHKD - Den Helder De Kooy

ULTIMO METAR :
  • 280455Z AUTO 23007KT 9999 SCT013 BKN017 BKN025 13/11 Q1015 GRN

METARs OBSOLETI :
  • 280448Z AUTO 23008KT 9999 FEW014 BKN016 BKN022 13/11 Q1015 WHT
  • 280433Z AUTO 23008KT 200V260 9999 SCT014 BKN017 BKN020 13/11 Q1015 GRN
  • 280404Z AUTO 23007KT 200V260 9999 BKN015 BKN019 BKN022 13/11 Q1015 WHT
  • 280357Z AUTO 23007KT 200V260 9999 SCT014 BKN016 BKN180 13/11 Q1015 GRN
  • 280346Z AUTO 22006KT 9999 BKN015 BKN140 12/10 Q1015 WHT
  • 280332Z AUTO 22007KT 190V250 9999 SCT014 BKN017 BKN130 12/10 Q1015 GRN
  • 280301Z AUTO 21005KT 9999 BKN015 OVC120 11/10 Q1015 WHT
  • 280257Z AUTO 21004KT 9999 SCT016 BKN120 11/10 Q1015 WHT
  • 280227Z AUTO 19005KT 9999 FEW013 OVC100 11/10 Q1015 BLU
  • 280225Z AUTO 19005KT 9999 SCT013 OVC110 11/10 Q1015 GRN
  • 280214Z AUTO 19005KT 9999 FEW012 SCT017 OVC110 11/10 Q1015 WHT
  • 280155Z AUTO 18005KT 9999 BKN015 OVC110 11/09 Q1016 WHT
  • 280139Z AUTO 19004KT 9999 OVC015 11/09 Q1016 WHT
  • 280127Z AUTO 18005KT 9999 BKN016 OVC110 11/09 Q1016 WHT
  • 280125Z AUTO 18005KT 9999 SCT016 OVC110 11/09 Q1016 WHT
  • 280055Z AUTO 17004KT 9999 OVC110 11/09 Q1016 BLU
  • 280025Z AUTO 19004KT 160V220 9999 OVC120 11/09 Q1016 BLU

TAF TAF EHKD
Valido dal 28 a 01 ore il 28 a 13 ore UTC


280046Z 2801/2813 22007KT CAVOK
TEMPO 2804/2808 FEW010 SCT015



MetMap, La meteo Aeronautica in un colpo d'occhio ! - Copyright ORBIFLY Dicembre 2007 - Disclaimer

ORBIFLY MET'MAP TEAM :

Programmazione e sviluppo : Alexandra Zaïnal
Concezione : Baudouin d'Aumeries
Supporto tecnico e logistico : Manuel Goepfert
Aiuto : Marc-Olivier Méhu
Aiuto per la traduzione : Arnaldo La Scala




FONTI E CREDITI :

   NOAA